createdAt,value
2018-09-13T08:36:20.923Z,30.00
2018-09-13T08:38:50.953Z,31.10
2018-09-13T08:46:20.927Z,31.60
2018-09-13T08:51:22.433Z,31.10
2018-09-13T08:53:52.187Z,32.30
2018-09-13T08:56:23.474Z,31.40
2018-09-13T08:58:52.947Z,30.50
2018-09-13T09:01:35.787Z,30.20
2018-09-13T09:04:08.711Z,30.00
2018-09-13T09:06:45.175Z,29.70
2018-09-13T09:09:14.699Z,29.60
2018-09-13T09:11:44.571Z,29.40
2018-09-13T09:14:14.667Z,29.20
2018-09-13T09:16:44.360Z,29.10
2018-09-13T09:19:21.705Z,29.10
2018-09-13T09:21:53.644Z,29.20
2018-09-13T09:24:25.595Z,29.20
2018-09-13T09:26:55.794Z,29.20
2018-09-13T09:29:26.716Z,29.20
2018-09-13T09:31:57.527Z,29.20
2018-09-13T09:34:27.126Z,29.20
2018-09-13T09:36:57.520Z,29.20
2018-09-13T09:39:27.491Z,29.20
2018-09-13T09:41:57.027Z,29.10
2018-09-13T09:44:28.839Z,29.20
2018-09-13T09:46:58.439Z,29.20
2018-09-13T09:49:27.992Z,29.20
2018-09-13T09:51:57.513Z,29.20
2018-09-13T09:54:27.918Z,29.10
2018-09-13T09:56:58.572Z,29.00
2018-09-13T09:59:29.459Z,28.90
2018-09-13T10:02:07.410Z,28.80
2018-09-13T10:04:39.118Z,28.60
2018-09-13T10:07:13.095Z,28.50
2018-09-13T10:09:43.423Z,28.20
2018-09-13T10:12:16.239Z,28.10
2018-09-13T10:14:51.820Z,28.00
2018-09-13T10:17:26.726Z,27.90
2018-09-13T10:20:02.869Z,27.80
2018-09-13T10:22:37.749Z,27.80
2018-09-13T10:25:12.648Z,27.70
2018-09-13T10:27:47.909Z,27.70
2018-09-13T10:30:22.785Z,27.30
2018-09-13T10:38:40.218Z,27.60
2018-09-13T10:41:15.334Z,27.70
2018-09-13T10:46:26.064Z,28.50
2018-09-13T10:49:02.294Z,29.90
2018-09-13T10:56:13.465Z,29.60
2018-09-13T10:58:44.092Z,28.70
2018-09-13T11:01:13.985Z,28.80
2018-09-13T11:03:43.511Z,28.90
2018-09-13T11:06:23.135Z,28.90
2018-09-13T11:08:52.739Z,28.90
2018-09-13T11:11:24.538Z,28.80
2018-09-13T11:14:01.677Z,28.80
2018-09-13T11:16:34.375Z,28.80
2018-09-13T11:19:24.855Z,28.80
2018-09-13T11:22:02.774Z,28.80
2018-09-13T11:24:33.150Z,28.80
2018-09-13T11:27:12.025Z,28.80
2018-09-13T11:29:56.170Z,28.90
2018-09-13T11:32:30.290Z,28.90
2018-09-13T11:35:00.758Z,29.00
2018-09-13T11:37:31.445Z,29.00
2018-09-13T11:40:01.999Z,29.00
2018-09-13T11:42:33.441Z,29.00
2018-09-13T11:45:02.989Z,29.00
2018-09-13T11:47:32.549Z,29.00
2018-09-13T11:50:02.059Z,28.90
2018-09-13T11:52:32.103Z,28.80
2018-09-13T11:55:01.778Z,28.70
2018-09-13T11:57:31.361Z,28.60
2018-09-13T12:00:10.773Z,28.60
2018-09-13T12:02:44.152Z,28.60
2018-09-13T12:05:16.092Z,28.50
2018-09-13T12:07:48.296Z,28.50
2018-09-13T12:10:27.396Z,28.50
2018-09-13T12:12:58.820Z,28.70
2018-09-13T12:15:29.092Z,28.90
2018-09-13T12:17:59.229Z,29.00
2018-09-13T12:20:29.681Z,29.20
2018-09-13T12:22:59.407Z,29.30
2018-09-13T12:25:29.812Z,29.40
2018-09-13T12:28:01.211Z,29.30
2018-09-13T12:30:31.638Z,29.10
2018-09-13T12:33:01.499Z,28.80
2018-09-13T12:35:31.147Z,28.60
2018-09-13T12:38:00.679Z,28.30
2018-09-13T12:40:30.363Z,28.10
2018-09-13T12:43:00.392Z,28.00
2018-09-13T12:45:29.971Z,27.90
2018-09-13T12:47:59.532Z,27.90
2018-09-13T12:50:30.436Z,27.90
2018-09-13T12:53:00.028Z,28.00
2018-09-13T12:55:34.624Z,28.00
2018-09-13T12:58:04.726Z,28.10
2018-09-13T13:00:43.969Z,28.10
2018-09-13T13:03:18.377Z,28.10
2018-09-13T13:06:05.844Z,28.10
2018-09-13T13:08:35.730Z,28.00
2018-09-13T13:11:09.077Z,28.00
2018-09-13T13:13:38.718Z,28.00
2018-09-13T13:16:08.260Z,27.90
2018-09-13T13:18:41.424Z,27.90
2018-09-13T13:21:11.015Z,27.90
2018-09-13T13:23:40.715Z,27.90
2018-09-13T13:26:12.348Z,27.90
2018-09-13T13:28:41.976Z,27.90
2018-09-13T13:31:11.650Z,27.90
2018-09-13T13:33:43.439Z,27.80
2018-09-13T13:36:13.582Z,27.80
2018-09-13T13:38:43.776Z,27.80
2018-09-13T13:41:13.341Z,27.70
2018-09-13T13:43:42.901Z,27.70
2018-09-13T13:46:12.784Z,27.80
2018-09-13T13:48:42.364Z,27.80
2018-09-13T13:51:11.912Z,27.80
2018-09-13T13:53:42.091Z,27.90
2018-09-13T13:56:11.612Z,27.90
2018-09-13T13:58:41.484Z,27.90
2018-09-13T14:01:11.027Z,27.90
2018-09-13T14:03:40.563Z,27.80
2018-09-13T14:06:10.090Z,27.80
2018-09-13T14:08:40.215Z,27.70
2018-09-13T14:11:09.740Z,27.70
2018-09-13T14:13:39.387Z,27.70
2018-09-13T14:16:09.010Z,27.60
2018-09-13T14:18:38.876Z,27.50
2018-09-13T14:21:08.456Z,27.40
2018-09-13T14:23:37.951Z,27.40
2018-09-13T14:26:08.314Z,27.30
2018-09-13T14:28:37.872Z,27.20
2018-09-13T14:31:07.504Z,27.20
2018-09-13T14:33:37.092Z,27.20
2018-09-13T14:36:06.736Z,27.20
2018-09-13T14:38:36.882Z,27.20
2018-09-13T14:41:07.182Z,27.20
2018-09-13T14:43:37.121Z,27.20
2018-09-13T14:46:07.281Z,27.20
2018-09-13T14:48:36.918Z,27.20
2018-09-13T14:51:07.088Z,27.20
2018-09-13T14:53:36.623Z,27.20
2018-09-13T14:56:06.533Z,27.10
2018-09-13T14:58:37.271Z,27.10
2018-09-13T15:01:07.516Z,27.10
2018-09-13T15:03:37.335Z,27.00
2018-09-13T15:06:07.918Z,26.90
2018-09-13T15:08:38.036Z,26.80
2018-09-13T15:11:08.301Z,26.80
2018-09-13T15:13:38.472Z,26.70
2018-09-13T15:16:08.459Z,26.60
2018-09-13T15:18:38.668Z,26.60
2018-09-13T15:21:09.314Z,26.60
2018-09-13T15:23:38.925Z,26.60
2018-09-13T15:26:09.191Z,26.50
2018-09-13T15:28:41.439Z,26.50
2018-09-13T15:31:11.580Z,26.50
2018-09-13T15:33:41.792Z,26.50
2018-09-13T15:36:12.522Z,26.50
2018-09-13T15:38:43.252Z,26.50
2018-09-13T15:41:13.184Z,26.50
2018-09-13T15:43:43.961Z,26.50
2018-09-13T15:46:14.236Z,26.50
2018-09-13T15:48:45.323Z,26.40
2018-09-13T15:51:16.430Z,26.40
2018-09-13T15:53:46.619Z,26.40
2018-09-13T15:56:16.299Z,26.40
2018-09-13T15:58:46.911Z,26.40
2018-09-13T18:57:36.808Z,27.80
2018-09-13T19:00:06.699Z,27.80
2018-09-13T19:02:37.808Z,27.10
2018-09-13T19:05:08.387Z,26.60
2018-09-13T19:07:38.163Z,26.40
2018-09-13T19:10:08.147Z,26.30
2018-09-13T19:12:38.744Z,26.20
2018-09-13T19:15:11.824Z,26.10
2018-09-13T19:17:42.164Z,25.90
2018-09-13T19:20:12.744Z,25.80
2018-09-13T19:22:42.694Z,25.70
2018-09-13T19:25:12.619Z,25.70
2018-09-13T19:27:42.546Z,25.60
2018-09-13T19:30:13.123Z,25.50
2018-09-13T19:32:43.344Z,25.50
2018-09-13T19:35:15.338Z,25.50
2018-09-13T19:37:49.205Z,25.50
2018-09-13T19:40:24.137Z,25.50
2018-09-13T19:42:57.585Z,25.50
2018-09-13T19:45:28.790Z,25.50
2018-09-13T19:48:03.422Z,25.50
2018-09-13T19:50:38.268Z,25.40
2018-09-13T19:53:08.427Z,25.50
2018-09-13T19:55:43.204Z,25.50
2018-09-13T19:58:21.297Z,25.50
2018-09-13T20:00:52.760Z,25.50
2018-09-13T20:03:24.721Z,25.50
2018-09-13T20:06:01.392Z,25.50
2018-09-13T20:08:33.189Z,25.50
2018-09-13T20:11:11.716Z,25.50
2018-09-13T20:13:47.404Z,25.50
2018-09-13T20:16:27.717Z,25.50
2018-09-13T20:18:58.310Z,25.50
2018-09-13T20:21:29.032Z,25.50
2018-09-13T20:23:59.631Z,25.50
2018-09-13T20:26:30.048Z,25.40
2018-09-13T20:29:01.370Z,25.40
2018-09-13T20:31:47.530Z,25.40
2018-09-13T20:34:22.668Z,25.40
2018-09-13T20:36:57.423Z,25.40
2018-09-13T20:39:28.156Z,25.40
2018-09-13T20:41:58.232Z,25.40
2018-09-13T20:44:36.383Z,25.40
2018-09-13T20:47:09.960Z,25.40
2018-09-13T20:49:40.111Z,25.40
2018-09-13T20:52:11.169Z,25.40
2018-09-13T20:54:40.959Z,25.30
2018-09-13T20:57:12.207Z,25.30
2018-09-13T20:59:42.567Z,25.30
2018-09-13T21:02:12.520Z,25.30
2018-09-13T21:04:42.674Z,25.30
2018-09-13T21:07:12.524Z,25.30
2018-09-13T21:09:43.811Z,25.30
2018-09-13T21:12:13.956Z,25.30
2018-09-13T21:14:48.518Z,25.30
2018-09-13T21:17:19.187Z,25.30
2018-09-13T21:19:50.439Z,25.30
2018-09-13T21:22:21.924Z,25.30
2018-09-13T21:24:52.471Z,25.30
2018-09-13T21:27:31.535Z,25.30
2018-09-13T21:30:01.221Z,25.30
2018-09-13T21:32:32.387Z,25.20
2018-09-13T21:35:05.002Z,25.20
2018-09-13T21:37:35.315Z,25.20
2018-09-13T21:40:10.771Z,25.20
2018-09-13T21:42:45.922Z,25.10
2018-09-13T21:45:16.006Z,25.10
2018-09-13T21:47:46.275Z,25.10
2018-09-13T21:50:16.734Z,25.10
2018-09-13T21:52:46.728Z,25.10
2018-09-13T21:55:24.976Z,25.10
2018-09-13T21:57:59.824Z,25.10
2018-09-13T22:00:31.836Z,25.10
2018-09-13T22:03:02.395Z,25.00
2018-09-13T22:05:32.215Z,25.00
2018-09-13T22:08:02.120Z,25.00
2018-09-13T22:10:31.793Z,25.10
2018-09-13T22:13:01.679Z,25.00
2018-09-13T22:15:32.347Z,25.00
2018-09-13T22:18:03.111Z,25.00
2018-09-13T22:20:32.993Z,25.00
2018-09-13T22:23:02.899Z,25.00
2018-09-13T22:25:32.822Z,24.90
2018-09-13T22:28:03.499Z,25.00
2018-09-13T22:30:33.576Z,25.00
2018-09-13T22:33:03.636Z,25.00
2018-09-13T22:35:33.367Z,25.00
2018-09-13T22:38:03.014Z,25.00
2018-09-13T22:40:33.270Z,25.00
2018-09-13T22:43:03.804Z,25.00
2018-09-13T22:45:33.447Z,24.90
2018-09-13T22:48:03.763Z,24.90
2018-09-13T22:50:33.960Z,24.90
2018-09-13T22:53:04.642Z,24.90
2018-09-13T22:55:35.180Z,24.90
2018-09-13T22:58:05.099Z,24.90
2018-09-13T23:00:35.013Z,24.90
2018-09-13T23:03:05.684Z,24.90
2018-09-13T23:05:36.413Z,24.80
2018-09-13T23:08:07.053Z,24.80
2018-09-13T23:10:38.012Z,24.80
2018-09-13T23:13:07.623Z,24.80
2018-09-13T23:15:37.262Z,24.70
2018-09-13T23:18:06.842Z,24.80
2018-09-13T23:20:36.424Z,24.70
2018-09-13T23:23:06.095Z,24.70
2018-09-13T23:25:36.119Z,24.70
2018-09-13T23:28:06.405Z,24.80
2018-09-13T23:30:36.374Z,24.80
2018-09-13T23:33:06.633Z,24.70
2018-09-13T23:35:36.973Z,24.70
2018-09-13T23:38:06.819Z,24.60
2018-09-13T23:40:37.176Z,24.60
2018-09-13T23:43:07.904Z,24.60
2018-09-13T23:45:38.571Z,24.50
2018-09-13T23:48:08.447Z,24.50
2018-09-13T23:50:39.287Z,24.40
2018-09-13T23:53:10.015Z,24.40
2018-09-13T23:55:39.914Z,24.40
2018-09-13T23:58:09.455Z,24.30
